createdAt,value
2023-05-24T00:00:56.858Z,99499.56
2023-05-24T00:03:28.189Z,99503.16
2023-05-24T00:05:56.003Z,99500.56
2023-05-24T00:08:23.093Z,99500.59
2023-05-24T00:10:50.556Z,99494.31
2023-05-24T00:13:17.848Z,99503.41
2023-05-24T00:15:45.222Z,99498.22
2023-05-24T00:18:12.126Z,99499.91
2023-05-24T00:20:42.157Z,99496.38
2023-05-24T00:23:11.653Z,99498.06
2023-05-24T00:25:39.070Z,99506.28
2023-05-24T00:28:06.005Z,99500.50
2023-05-24T00:30:33.270Z,99515.44
2023-05-24T00:33:00.473Z,99503.88
2023-05-24T00:35:27.777Z,99502.78
2023-05-24T00:37:54.704Z,99503.19
2023-05-24T00:40:21.891Z,99493.13
2023-05-24T00:42:50.804Z,99494.59
2023-05-24T00:45:18.242Z,99500.38
2023-05-24T00:47:45.836Z,99497.78
2023-05-24T00:50:14.562Z,99504.66
2023-05-24T00:52:42.127Z,99506.16
2023-05-24T00:55:09.807Z,99504.50
2023-05-24T00:57:37.269Z,99505.03
2023-05-24T01:00:05.406Z,99491.63
2023-05-24T01:02:34.821Z,99497.97
2023-05-24T01:09:31.236Z,99514.56
2023-05-24T01:12:17.292Z,99512.91
2023-05-24T01:15:04.989Z,99509.53
2023-05-24T01:17:37.593Z,99508.44
2023-05-24T01:20:09.103Z,99504.34
2023-05-24T01:22:55.328Z,99502.31
2023-05-24T01:25:33.901Z,99505.13
2023-05-24T01:28:04.270Z,99503.63
2023-05-24T01:30:31.383Z,99504.91
2023-05-24T01:32:58.656Z,99507.16
2023-05-24T01:35:25.779Z,99508.47
2023-05-24T01:37:53.138Z,99508.06
2023-05-24T01:40:20.208Z,99508.25
2023-05-24T01:42:59.831Z,99512.88
2023-05-24T01:45:34.402Z,99514.53
2023-05-24T01:48:07.288Z,99510.94
2023-05-24T01:50:43.497Z,99521.13
2023-05-24T01:53:13.354Z,99515.50
2023-05-24T01:55:40.812Z,99511.56
2023-05-24T01:58:09.630Z,99512.63
2023-05-24T02:00:39.146Z,99507.22
2023-05-24T02:03:06.907Z,99506.78
2023-05-24T02:05:33.962Z,99509.78
2023-05-24T02:08:06.180Z,99508.06
2023-05-24T02:10:33.421Z,99513.56
2023-05-24T02:13:00.723Z,99510.94
2023-05-24T02:15:30.522Z,99513.91
2023-05-24T02:17:58.684Z,99513.91
2023-05-24T02:20:26.626Z,99512.72
2023-05-24T02:22:54.186Z,99515.31
2023-05-24T02:25:21.109Z,99513.69
2023-05-24T02:27:48.708Z,99517.75
2023-05-24T02:30:18.228Z,99514.06
2023-05-24T02:32:47.954Z,99515.97
2023-05-24T02:35:15.061Z,99523.38
2023-05-24T02:37:42.463Z,99524.63
2023-05-24T02:40:09.903Z,99525.38
2023-05-24T02:42:37.155Z,99524.63
2023-05-24T02:45:04.288Z,99523.44
2023-05-24T02:47:31.694Z,99516.69
2023-05-24T02:49:58.596Z,99518.00
2023-05-24T02:52:26.857Z,99522.72
2023-05-24T02:54:54.001Z,99529.50
2023-05-24T02:57:22.862Z,99527.97
2023-05-24T02:59:50.631Z,99526.16
2023-05-24T03:02:19.598Z,99534.38
2023-05-24T03:04:48.958Z,99534.78
2023-05-24T03:07:16.466Z,99538.34
2023-05-24T03:09:43.340Z,99531.88
2023-05-24T03:12:10.569Z,99530.25
2023-05-24T03:14:38.236Z,99541.03
2023-05-24T03:17:08.673Z,99539.00
2023-05-24T03:19:35.630Z,99544.56
2023-05-24T03:22:02.988Z,99548.63
2023-05-24T03:24:29.937Z,99555.53
2023-05-24T03:26:57.630Z,99553.13
2023-05-24T03:29:24.652Z,99556.84
2023-05-24T03:31:53.994Z,99557.44
2023-05-24T03:34:21.066Z,99560.44
2023-05-24T03:36:48.390Z,99559.72
2023-05-24T03:39:15.462Z,99553.44
2023-05-24T03:41:55.155Z,99563.13
2023-05-24T03:44:22.104Z,99569.50
2023-05-24T03:46:49.343Z,99570.25
2023-05-24T03:49:16.538Z,99578.41
2023-05-24T03:51:44.222Z,99580.41
2023-05-24T03:54:11.392Z,99584.94
2023-05-24T03:57:19.384Z,99584.16
2023-05-24T03:59:47.099Z,99585.53
2023-05-24T04:02:14.751Z,99591.13
2023-05-24T04:04:44.666Z,99586.03
2023-05-24T04:07:16.602Z,99579.75
2023-05-24T04:09:43.762Z,99585.44
2023-05-24T04:12:11.879Z,99591.63
2023-05-24T04:14:42.062Z,99591.84
2023-05-24T04:17:10.125Z,99592.00
2023-05-24T04:23:42.445Z,99603.75
2023-05-24T04:26:11.145Z,99608.41
2023-05-24T04:28:38.544Z,99604.13
2023-05-24T04:31:06.354Z,99606.72
2023-05-24T04:33:34.382Z,99618.47
2023-05-24T04:36:02.018Z,99606.91
2023-05-24T04:38:36.344Z,99607.06
2023-05-24T04:41:03.397Z,99614.50
2023-05-24T04:43:30.680Z,99613.19
2023-05-24T04:45:57.905Z,99621.78
2023-05-24T04:48:25.202Z,99626.78
2023-05-24T04:50:52.725Z,99621.19
2023-05-24T04:53:20.353Z,99618.53
2023-05-24T04:55:50.249Z,99628.13
2023-05-24T04:58:19.858Z,99626.09
2023-05-24T05:00:47.142Z,99632.03
2023-05-24T05:03:14.649Z,99635.78
2023-05-24T05:05:41.941Z,99632.22
2023-05-24T05:08:09.810Z,99636.31
2023-05-24T05:10:37.297Z,99645.03
2023-05-24T05:13:04.778Z,99646.28
2023-05-24T05:15:32.770Z,99645.22
2023-05-24T05:18:02.667Z,99649.06
2023-05-24T05:20:29.706Z,99652.00
2023-05-24T05:22:56.962Z,99654.59
2023-05-24T05:25:23.909Z,99655.91
2023-05-24T05:27:51.203Z,99654.03
2023-05-24T05:30:18.212Z,99656.56
2023-05-24T05:32:47.922Z,99662.19
2023-05-24T05:35:14.872Z,99668.72
2023-05-24T05:37:44.566Z,99665.09
2023-05-24T05:40:11.802Z,99666.47
2023-05-24T05:42:39.156Z,99669.28
2023-05-24T05:45:06.429Z,99674.13
2023-05-24T05:47:33.771Z,99671.16
2023-05-24T05:50:00.874Z,99670.13
2023-05-24T05:52:28.036Z,99673.09
2023-05-24T05:54:54.960Z,99682.59
2023-05-24T05:57:24.457Z,99681.41
2023-05-24T05:59:51.768Z,99680.84
2023-05-24T06:02:19.303Z,99679.16
2023-05-24T06:04:47.036Z,99686.66
2023-05-24T06:07:14.341Z,99685.25
2023-05-24T06:09:43.713Z,99691.88
2023-05-24T06:12:11.059Z,99695.25
2023-05-24T06:14:40.837Z,99689.66
2023-05-24T06:17:08.221Z,99693.81
2023-05-24T06:19:35.113Z,99703.19
2023-05-24T06:22:02.872Z,99695.28
2023-05-24T06:24:29.895Z,99701.41
2023-05-24T06:26:57.219Z,99694.72
2023-05-24T06:29:25.427Z,99695.78
2023-05-24T06:31:53.100Z,99700.66
2023-05-24T06:34:23.109Z,99704.13
2023-05-24T06:36:51.757Z,99695.59
2023-05-24T06:39:19.083Z,99701.19
2023-05-24T06:41:47.365Z,99700.91
2023-05-24T06:44:17.180Z,99703.25
2023-05-24T06:46:44.691Z,99711.91
2023-05-24T06:49:13.915Z,99710.69
2023-05-24T06:51:41.181Z,99714.09
2023-05-24T06:54:08.145Z,99715.47
2023-05-24T06:56:35.719Z,99730.78
2023-05-24T06:59:02.666Z,99721.03
2023-05-24T07:01:29.999Z,99726.47
2023-05-24T07:03:57.048Z,99737.59
2023-05-24T07:06:27.956Z,99740.91
2023-05-24T07:08:54.978Z,99737.06
2023-05-24T07:11:24.747Z,99726.72
2023-05-24T07:13:51.729Z,99731.38
2023-05-24T07:16:19.103Z,99747.91
2023-05-24T07:18:48.551Z,99746.34
2023-05-24T07:21:16.005Z,99751.63
2023-05-24T07:23:42.920Z,99754.28
2023-05-24T07:26:10.243Z,99762.91
2023-05-24T07:28:38.908Z,99762.94
2023-05-24T07:31:08.355Z,99758.88
2023-05-24T07:33:36.462Z,99754.03
2023-05-24T07:36:07.354Z,99753.38
2023-05-24T07:38:35.103Z,99767.50
2023-05-24T07:41:06.458Z,99759.91
2023-05-24T07:43:33.415Z,99758.56
2023-05-24T07:46:00.711Z,99767.81
2023-05-24T07:48:27.714Z,99762.03
2023-05-24T07:50:55.075Z,99765.63
2023-05-24T07:53:23.063Z,99759.41
2023-05-24T07:55:50.946Z,99773.19
2023-05-24T07:58:17.925Z,99761.34
2023-05-24T08:00:45.859Z,99761.03
2023-05-24T08:03:14.799Z,99770.53
2023-05-24T08:05:42.439Z,99769.50
2023-05-24T08:08:10.430Z,99764.16
2023-05-24T08:10:37.732Z,99762.91
2023-05-24T08:13:05.747Z,99762.97
2023-05-24T08:15:33.236Z,99766.44
2023-05-24T08:18:05.526Z,99761.38
2023-05-24T08:20:36.369Z,99765.25
2023-05-24T08:23:05.958Z,99773.00
2023-05-24T08:25:33.796Z,99771.06
2023-05-24T08:28:02.734Z,99766.91
2023-05-24T08:30:30.784Z,99779.00
2023-05-24T08:33:00.231Z,99777.16
2023-05-24T08:35:27.538Z,99781.69
2023-05-24T08:37:54.933Z,99782.94
2023-05-24T08:40:24.454Z,99784.88
2023-05-24T08:42:52.578Z,99794.97
2023-05-24T08:45:21.537Z,99792.13
2023-05-24T08:47:50.462Z,99785.94
2023-05-24T08:50:18.302Z,99780.63
2023-05-24T08:52:46.090Z,99779.75
2023-05-24T08:55:16.338Z,99784.91
2023-05-24T08:57:44.667Z,99786.19
2023-05-24T09:00:13.172Z,99777.41
2023-05-24T09:02:41.176Z,99799.13
2023-05-24T09:05:12.544Z,99779.88
2023-05-24T09:07:40.859Z,99769.94
2023-05-24T09:10:10.831Z,99776.16
2023-05-24T09:12:39.535Z,99770.00
2023-05-24T09:15:09.991Z,99773.22
2023-05-24T09:17:37.916Z,99778.41
2023-05-24T09:20:07.529Z,99774.44
2023-05-24T09:22:37.447Z,99772.22
2023-05-24T09:25:06.474Z,99772.13
2023-05-24T09:27:35.184Z,99776.94
2023-05-24T09:30:05.583Z,99775.84
2023-05-24T09:32:32.599Z,99782.25
2023-05-24T09:35:00.348Z,99782.16
2023-05-24T09:37:32.117Z,99778.66
2023-05-24T09:40:02.545Z,99785.78
2023-05-24T09:42:30.352Z,99780.38
2023-05-24T09:45:06.882Z,99794.06
2023-05-24T09:47:35.074Z,99786.38
2023-05-24T09:50:03.616Z,99789.97
2023-05-24T09:52:31.097Z,99783.09
2023-05-24T09:55:00.260Z,99787.19
2023-05-24T09:57:28.306Z,99791.88
2023-05-24T09:59:56.542Z,99793.56
2023-05-24T10:02:26.069Z,99785.88
2023-05-24T10:04:59.325Z,99783.84
2023-05-24T10:07:27.214Z,99787.59
2023-05-24T10:09:55.401Z,99788.91
2023-05-24T10:12:23.393Z,99789.47
2023-05-24T10:14:51.667Z,99795.41
2023-05-24T10:17:18.789Z,99785.44
2023-05-24T10:19:46.398Z,99792.09
2023-05-24T10:22:14.276Z,99782.91
2023-05-24T10:24:46.659Z,99791.63
2023-05-24T10:27:19.492Z,99783.31
2023-05-24T10:29:55.295Z,99780.16
2023-05-24T10:32:24.620Z,99780.91
2023-05-24T10:34:53.714Z,99790.91
2023-05-24T10:37:24.900Z,99783.53
2023-05-24T10:39:52.378Z,99776.72
2023-05-24T10:42:19.821Z,99781.94
2023-05-24T10:44:49.537Z,99792.38
2023-05-24T10:47:18.176Z,99789.03
2023-05-24T10:49:51.331Z,99789.41
2023-05-24T10:52:21.043Z,99796.34
2023-05-24T10:55:05.447Z,99797.16
2023-05-24T10:57:33.194Z,99792.81
2023-05-24T11:00:30.719Z,99795.94
2023-05-24T11:03:04.121Z,99791.38
2023-05-24T11:05:37.609Z,99790.03
2023-05-24T11:08:06.937Z,99785.63
2023-05-24T11:10:35.816Z,99792.06
2023-05-24T11:13:03.479Z,99785.16
2023-05-24T11:15:30.843Z,99783.69
2023-05-24T11:18:09.307Z,99791.28
2023-05-24T11:20:36.801Z,99785.50
2023-05-24T11:23:04.333Z,99791.38
2023-05-24T11:25:33.116Z,99792.41
2023-05-24T11:28:02.023Z,99788.13
2023-05-24T11:30:29.284Z,99785.38
2023-05-24T11:32:57.246Z,99778.84
2023-05-24T11:35:28.177Z,99777.88
2023-05-24T11:37:55.154Z,99780.06
2023-05-24T11:40:22.458Z,99771.59
2023-05-24T11:42:52.536Z,99774.94
2023-05-24T11:45:20.188Z,99781.13
2023-05-24T11:47:49.189Z,99774.59
2023-05-24T11:50:17.301Z,99772.59
2023-05-24T11:52:44.301Z,99775.41
2023-05-24T11:55:16.347Z,99777.22
2023-05-24T11:57:49.327Z,99781.25
2023-05-24T12:00:26.548Z,99767.97
2023-05-24T12:03:03.011Z,99775.97
2023-05-24T12:05:33.108Z,99775.56
2023-05-24T12:08:01.940Z,99776.53
2023-05-24T12:10:29.191Z,99771.66
2023-05-24T12:12:57.071Z,99774.31
2023-05-24T12:15:24.485Z,99781.25
2023-05-24T12:17:52.395Z,99767.75
2023-05-24T12:20:20.577Z,99772.22
2023-05-24T12:22:54.264Z,99770.59
2023-05-24T12:25:22.923Z,99763.25
2023-05-24T12:27:54.463Z,99759.84
2023-05-24T12:30:25.964Z,99761.09
2023-05-24T12:32:55.946Z,99762.16
2023-05-24T12:35:23.728Z,99765.22
2023-05-24T12:37:50.904Z,99752.13
2023-05-24T12:40:22.176Z,99755.28
2023-05-24T12:42:56.865Z,99745.00
2023-05-24T12:45:26.072Z,99759.50
2023-05-24T12:47:57.656Z,99759.88
2023-05-24T12:50:28.098Z,99757.44
2023-05-24T12:52:55.126Z,99743.53
2023-05-24T12:55:23.124Z,99746.47
2023-05-24T12:57:54.389Z,99750.53
2023-05-24T13:00:22.985Z,99752.81
2023-05-24T13:02:52.877Z,99751.13
2023-05-24T13:05:20.392Z,99752.66
2023-05-24T13:07:47.386Z,99751.34
2023-05-24T13:10:14.699Z,99751.97
2023-05-24T13:12:41.998Z,99749.34
2023-05-24T13:15:10.020Z,99752.06
2023-05-24T13:17:37.042Z,99748.19
2023-05-24T13:20:07.280Z,99746.72
2023-05-24T13:22:35.718Z,99736.88
2023-05-24T13:25:05.542Z,99735.66
2023-05-24T13:27:32.534Z,99737.13
2023-05-24T13:30:01.277Z,99739.47
2023-05-24T13:32:28.976Z,99739.59
2023-05-24T13:34:56.271Z,99742.22
2023-05-24T13:37:23.753Z,99735.94
2023-05-24T13:39:53.371Z,99727.53
2023-05-24T13:42:21.018Z,99740.16
2023-05-24T13:44:48.467Z,99733.34
2023-05-24T13:47:31.105Z,99736.03
2023-05-24T13:50:09.376Z,99720.19
2023-05-24T13:52:37.105Z,99723.88
2023-05-24T13:55:07.359Z,99723.44
2023-05-24T14:00:09.104Z,99715.88
2023-05-24T14:02:39.490Z,99718.38
2023-05-24T14:05:24.827Z,99715.88
2023-05-24T14:07:54.436Z,99716.47
2023-05-24T14:10:22.065Z,99707.28
2023-05-24T14:12:59.335Z,99703.56
2023-05-24T14:15:31.295Z,99708.44
2023-05-24T14:18:01.510Z,99703.69
2023-05-24T14:20:28.923Z,99700.56
2023-05-24T14:22:58.393Z,99695.34
2023-05-24T14:25:25.947Z,99696.19
2023-05-24T14:27:52.954Z,99685.66
2023-05-24T14:30:20.251Z,99693.91
2023-05-24T14:32:47.174Z,99690.78
2023-05-24T14:35:14.517Z,99696.38
2023-05-24T14:37:41.467Z,99696.25
2023-05-24T14:40:09.156Z,99701.13
2023-05-24T14:42:36.350Z,99695.78
2023-05-24T14:45:06.530Z,99686.69
2023-05-24T14:47:33.752Z,99694.91
2023-05-24T14:50:03.648Z,99698.66
2023-05-24T14:52:33.264Z,99696.53
2023-05-24T14:55:03.397Z,99699.03
2023-05-24T14:57:30.974Z,99697.91
2023-05-24T15:00:00.679Z,99693.63
2023-05-24T15:02:27.955Z,99693.25
2023-05-24T15:04:55.351Z,99696.00
2023-05-24T15:07:24.604Z,99690.38
2023-05-24T15:09:51.906Z,99699.06
2023-05-24T15:12:19.733Z,99697.41
2023-05-24T15:14:49.045Z,99692.13
2023-05-24T15:17:16.240Z,99688.25
2023-05-24T15:19:43.556Z,99690.78
2023-05-24T15:22:10.780Z,99692.34
2023-05-24T15:24:38.005Z,99691.00
2023-05-24T15:27:07.416Z,99693.50
2023-05-24T15:29:34.679Z,99696.59
2023-05-24T15:32:02.140Z,99683.44
2023-05-24T15:34:29.441Z,99683.88
2023-05-24T15:36:59.362Z,99693.34
2023-05-24T15:39:27.046Z,99690.16
2023-05-24T15:41:54.075Z,99691.91
2023-05-24T15:44:23.659Z,99693.59
2023-05-24T15:46:50.876Z,99689.59
2023-05-24T15:49:18.233Z,99695.41
2023-05-24T15:54:15.620Z,99682.38
2023-05-24T15:56:42.844Z,99681.19
2023-05-24T15:59:10.167Z,99683.72
2023-05-24T16:01:37.404Z,99684.41
2023-05-24T16:04:04.731Z,99681.84
2023-05-24T16:06:31.797Z,99688.34
2023-05-24T16:08:59.366Z,99691.09
2023-05-24T16:11:26.285Z,99696.97
2023-05-24T16:13:54.444Z,99690.88
2023-05-24T16:16:23.890Z,99688.34
2023-05-24T16:18:51.247Z,99695.97
2023-05-24T16:21:18.165Z,99686.16
2023-05-24T16:23:45.571Z,99688.38
2023-05-24T16:26:12.535Z,99686.91
2023-05-24T16:28:39.781Z,99695.16
2023-05-24T16:31:06.831Z,99694.59
2023-05-24T16:33:34.175Z,99688.50
2023-05-24T16:36:03.678Z,99695.28
2023-05-24T16:38:30.974Z,99702.06
2023-05-24T16:40:57.912Z,99707.06
2023-05-24T16:43:25.927Z,99706.72
2023-05-24T16:45:55.373Z,99712.75
2023-05-24T16:48:28.779Z,99717.91
2023-05-24T16:50:58.551Z,99707.66
2023-05-24T16:53:26.878Z,99710.00
2023-05-24T16:55:57.166Z,99715.69
2023-05-24T16:58:25.004Z,99719.50
2023-05-24T17:00:54.668Z,99720.50
2023-05-24T17:03:27.903Z,99723.38
2023-05-24T17:05:56.886Z,99727.19
2023-05-24T17:08:26.002Z,99727.75
2023-05-24T17:10:59.156Z,99730.78
2023-05-24T17:13:29.432Z,99728.38
2023-05-24T17:15:57.081Z,99732.53
2023-05-24T17:18:28.437Z,99733.69
2023-05-24T17:20:56.457Z,99733.00
2023-05-24T17:23:25.064Z,99736.97
2023-05-24T17:25:52.534Z,99735.31
2023-05-24T17:28:19.991Z,99743.38
2023-05-24T17:30:47.500Z,99743.03
2023-05-24T17:33:17.230Z,99747.00
2023-05-24T17:35:44.191Z,99762.00
2023-05-24T17:38:11.516Z,99765.78
2023-05-24T17:40:38.505Z,99770.81
2023-05-24T17:43:06.441Z,99766.91
2023-05-24T17:45:33.892Z,99768.81
2023-05-24T17:48:01.393Z,99769.63
2023-05-24T17:50:28.593Z,99768.88
2023-05-24T17:52:56.118Z,99770.19
2023-05-24T17:55:23.252Z,99769.84
2023-05-24T17:57:50.607Z,99765.56
2023-05-24T18:00:17.738Z,99764.47
2023-05-24T18:02:48.184Z,99770.13
2023-05-24T18:05:16.745Z,99769.22
2023-05-24T18:07:44.511Z,99779.34
2023-05-24T18:10:11.610Z,99774.72
2023-05-24T18:12:41.472Z,99776.41
2023-05-24T18:15:08.623Z,99777.59
2023-05-24T18:17:35.971Z,99785.28
2023-05-24T18:20:05.828Z,99784.03
2023-05-24T18:22:33.186Z,99786.81
2023-05-24T18:25:02.750Z,99801.97
2023-05-24T18:27:30.115Z,99805.31
2023-05-24T18:30:01.978Z,99807.59
2023-05-24T18:32:32.039Z,99808.88
2023-05-24T18:34:59.229Z,99822.72
2023-05-24T18:37:28.817Z,99809.31
2023-05-24T18:39:56.038Z,99814.38
2023-05-24T18:42:25.342Z,99825.22
2023-05-24T18:44:52.762Z,99822.03
2023-05-24T18:47:20.036Z,99824.28
2023-05-24T18:49:47.020Z,99828.22
2023-05-24T18:52:14.691Z,99829.94
2023-05-24T18:54:44.092Z,99832.53
2023-05-24T18:57:11.416Z,99826.94
2023-05-24T18:59:38.831Z,99834.03
2023-05-24T19:02:08.762Z,99837.75
2023-05-24T19:04:35.880Z,99836.44
2023-05-24T19:07:03.103Z,99840.38
2023-05-24T19:09:30.184Z,99846.88
2023-05-24T19:11:59.304Z,99853.38
2023-05-24T19:14:31.130Z,99859.72
2023-05-24T19:16:58.672Z,99873.09
2023-05-24T19:19:29.166Z,99866.59
2023-05-24T19:21:59.122Z,99872.34
2023-05-24T19:24:28.472Z,99878.47
2023-05-24T19:26:55.819Z,99878.22
2023-05-24T19:29:22.775Z,99871.53
2023-05-24T19:31:51.052Z,99873.69
2023-05-24T19:34:18.970Z,99884.50
2023-05-24T19:36:46.510Z,99889.66
2023-05-24T19:39:16.974Z,99880.34
2023-05-24T19:41:44.330Z,99882.16
2023-05-24T19:44:11.270Z,99871.91
2023-05-24T19:46:38.756Z,99890.66
2023-05-24T19:49:08.258Z,99885.81
2023-05-24T19:51:35.853Z,99883.94
2023-05-24T19:54:03.024Z,99889.50
2023-05-24T19:56:30.455Z,99888.56
2023-05-24T19:58:57.475Z,99900.66
2023-05-24T20:01:24.963Z,99900.09
2023-05-24T20:03:51.994Z,99905.25
2023-05-24T20:06:19.473Z,99910.44
2023-05-24T20:08:46.815Z,99912.09
2023-05-24T20:11:14.496Z,99907.28
2023-05-24T20:13:43.881Z,99902.41
2023-05-24T20:16:11.605Z,99906.88
2023-05-24T20:18:38.698Z,99909.09
2023-05-24T20:21:05.927Z,99899.63
2023-05-24T20:23:32.919Z,99901.63
2023-05-24T20:26:00.923Z,99909.38
2023-05-24T20:28:31.871Z,99904.69
2023-05-24T20:30:59.624Z,99916.19
2023-05-24T20:33:26.691Z,99910.03
2023-05-24T20:35:54.665Z,99916.16
2023-05-24T20:38:24.477Z,99920.34
2023-05-24T20:40:51.919Z,99927.03
2023-05-24T20:43:19.172Z,99927.72
2023-05-24T20:45:46.657Z,99929.47
2023-05-24T20:48:13.785Z,99940.19
2023-05-24T20:50:41.171Z,99937.88
2023-05-24T20:53:08.138Z,99946.16
2023-05-24T20:55:37.652Z,99946.84
2023-05-24T20:58:04.899Z,99940.63
2023-05-24T21:00:32.194Z,99939.25
2023-05-24T21:03:05.419Z,99943.13
2023-05-24T21:05:36.414Z,99946.03
2023-05-24T21:08:04.173Z,99952.59
2023-05-24T21:10:32.386Z,99960.63
2023-05-24T21:12:59.710Z,99957.22
2023-05-24T21:15:27.065Z,99958.19
2023-05-24T21:17:54.149Z,99953.91
2023-05-24T21:20:21.643Z,99956.69
2023-05-24T21:22:48.804Z,99958.53
2023-05-24T21:25:18.433Z,99964.72
2023-05-24T21:27:45.394Z,99966.88
2023-05-24T21:30:13.029Z,99966.78
2023-05-24T21:32:40.072Z,99966.88
2023-05-24T21:35:07.701Z,99961.69
2023-05-24T21:37:34.599Z,99962.34
2023-05-24T21:40:05.341Z,99965.00
2023-05-24T21:42:32.319Z,99969.38
2023-05-24T21:44:59.689Z,99975.16
2023-05-24T21:47:26.742Z,99977.84
2023-05-24T21:49:55.008Z,99974.09
2023-05-24T21:52:23.078Z,99979.56
2023-05-24T21:54:50.470Z,99979.03
2023-05-24T21:57:17.621Z,99982.88
2023-05-24T21:59:45.094Z,99975.69
2023-05-24T22:02:14.299Z,99976.56
2023-05-24T22:04:41.837Z,99984.28
2023-05-24T22:07:08.759Z,99988.41
2023-05-24T22:09:38.727Z,99990.97
2023-05-24T22:12:08.125Z,99989.47
2023-05-24T22:14:35.348Z,99992.56
2023-05-24T22:17:04.874Z,99996.03
2023-05-24T22:19:39.549Z,99990.53
2023-05-24T22:22:12.616Z,99992.66
2023-05-24T22:24:40.958Z,99998.97
2023-05-24T22:27:13.678Z,99996.63
2023-05-24T22:29:43.335Z,99997.50
2023-05-24T22:32:10.366Z,100001.75
2023-05-24T22:34:37.674Z,99998.75
2023-05-24T22:37:04.855Z,99998.09
2023-05-24T22:39:32.391Z,100001.94
2023-05-24T22:41:59.392Z,99996.97
2023-05-24T22:44:26.877Z,99991.63
2023-05-24T22:46:56.568Z,99986.13
2023-05-24T22:49:23.824Z,99986.13
2023-05-24T22:51:51.283Z,99991.94
2023-05-24T22:54:18.567Z,99987.94
2023-05-24T22:56:46.322Z,99987.50
2023-05-24T22:59:13.571Z,99988.00
2023-05-24T23:01:40.662Z,99981.03
2023-05-24T23:04:21.320Z,99975.25
2023-05-24T23:06:52.668Z,99982.72
2023-05-24T23:09:29.103Z,99982.50
2023-05-24T23:11:58.458Z,99981.00
2023-05-24T23:14:26.091Z,99978.59
2023-05-24T23:16:53.057Z,99966.25
2023-05-24T23:19:20.287Z,99978.38
2023-05-24T23:21:47.598Z,99977.84
2023-05-24T23:24:15.958Z,99973.88
2023-05-24T23:26:43.090Z,99976.19
2023-05-24T23:29:10.652Z,99979.50
2023-05-24T23:31:37.964Z,99978.50
2023-05-24T23:34:05.882Z,99981.38
2023-05-24T23:36:33.005Z,99990.13
2023-05-24T23:39:00.277Z,99986.31
2023-05-24T23:41:27.323Z,99993.38
2023-05-24T23:43:57.019Z,99993.16
2023-05-24T23:46:23.957Z,99996.00
2023-05-24T23:48:51.261Z,99991.44
2023-05-24T23:51:19.614Z,100001.78
2023-05-24T23:53:46.996Z,100011.75
2023-05-24T23:56:13.959Z,100014.03
2023-05-24T23:58:42.057Z,100007.88
